Vingaren — OZ2131 — position and weather

sailwx.info

Track history (hours):
 
Tides and Currents Weather Stations Pressure Air Temp Water Temp Dewpoint Dewpoint Depression Visibility Wind Speed Wind Dir Waves Ship Positions

Vingaren

Last reported at 2014-Sep-30 17:32 UTC. Time now 2014-Sep-30 18:01 UTC.
Position N 56°53' E 012°29'.

Length 89 m; draft 5.8 m.

Type: Cargo ship. MMSI: 231844000.

Date/timePositionNaut miles runAvg speedWind from/ knotsBaromVisibWave heightAir tempDewpointWater temp
2014-Sep-30 17:32N 56°53' E 012°29'0 0.0
2014-Sep-30 16:20N 56°53' E 012°29'0 0.0
2014-Sep-30 15:26N 56°53' E 012°29'0 0.0
2014-Sep-30 14:32N 56°53' E 012°29'0 0.0
2014-Sep-30 13:26N 56°53' E 012°29'0 0.0
2014-Sep-30 12:32N 56°53' E 012°29'0 0.0
2014-Sep-30 11:32N 56°53' E 012°29'0 0.4
2014-Sep-30 10:32N 56°53' E 012°28'8 8.5
2014-Sep-30 09:33N 56°45' E 012°25'1110.6
2014-Sep-30 08:33N 56°34' E 012°25'1010.3
2014-Sep-30 07:33N 56°24' E 012°24'1010.3
2014-Sep-30 06:33N 56°14' E 012°26'1010.4
2014-Sep-30 05:33N 56°05' E 012°37'10 9.8
2014-Sep-30 04:33N 55°56' E 012°44'10 9.6
2014-Sep-30 03:33N 55°46' E 012°42'10 9.5
2014-Sep-30 02:33N 55°37' E 012°42'9 9.2
2014-Sep-30 01:33N 55°28' E 012°42'9 9.4
2014-Sep-30 00:33N 55°18' E 012°43'1010.3
2014-Sep-29 23:33N 55°16' E 013°00'1010.3
2014-Sep-29 22:33N 55°15' E 013°18'10 9.9
2014-Sep-29 21:33N 55°14' E 013°35'1010.0
2014-Sep-29 20:33N 55°14' E 013°53'1010.0
2014-Sep-29 19:34N 55°13' E 014°11'9 9.0
2014-Sep-29 18:33N 55°18' E 014°24'1010.1
2014-Sep-29 17:33N 55°26' E 014°36'10 9.6
2014-Sep-29 16:33N 55°28' E 014°52'10 9.7
2014-Sep-29 15:34N 55°29' E 015°09'10 9.8
2014-Sep-29 14:34N 55°30' E 015°27'1010.0
2014-Sep-29 13:32N 55°30' E 015°45'10 9.9
2014-Sep-29 12:33N 55°30' E 016°02'10 9.9
2014-Sep-29 11:34N 55°31' E 016°19'10 9.5
2014-Sep-29 10:30N 55°32' E 016°37'11 9.4
2014-Sep-29 09:20N 55°33' E 016°56'11 8.9
2014-Sep-29 08:08N 55°34' E 017°15'9 8.8
2014-Sep-29 07:04N 55°35' E 017°32'5 8.7
2014-Sep-29 06:31N 55°36' E 017°40'98 8.2
2014-Sep-28 18:33N 55°44' E 020°33'  
2014-Sep-23 22:08N 59°35' E 023°06'6 9.2
2014-Sep-23 21:27N 59°37' E 023°18'8 9.3
2014-Sep-23 20:33N 59°40' E 023°34'10 9.5
2014-Sep-23 19:33N 59°43' E 023°52'22 9.5
2014-Sep-23 17:15N 59°48' E 024°33'4 0.1
2014-Sep-22 06:31N 59°45' E 024°35'3110.6
2014-Sep-22 03:33N 59°35' E 023°36'  
Track history (hours):
 
Tides and Currents Weather Stations Pressure Air Temp Water Temp Dewpoint Dewpoint Depression Visibility Wind Speed Wind Dir Waves Ship Positions

Vingaren

Last reported at 2014-Sep-30 17:32 UTC. Time now 2014-Sep-30 18:01 UTC.
Position N 56°53' E 012°29'.

Length 89 m; draft 5.8 m.

Type: Cargo ship. MMSI: 231844000.

Date/timePositionNaut miles runAvg speedWind from/ knotsBaromVisibWave heightAir tempDewpointWater temp
2014-Sep-30 17:32N 56°53' E 012°29'0 0.0
2014-Sep-30 16:20N 56°53' E 012°29'0 0.0
2014-Sep-30 15:26N 56°53' E 012°29'0 0.0
2014-Sep-30 14:32N 56°53' E 012°29'0 0.0
2014-Sep-30 13:26N 56°53' E 012°29'0 0.0
2014-Sep-30 12:32N 56°53' E 012°29'0 0.0
2014-Sep-30 11:32N 56°53' E 012°29'0 0.4
2014-Sep-30 10:32N 56°53' E 012°28'8 8.5
2014-Sep-30 09:33N 56°45' E 012°25'1110.6
2014-Sep-30 08:33N 56°34' E 012°25'1010.3
2014-Sep-30 07:33N 56°24' E 012°24'1010.3
2014-Sep-30 06:33N 56°14' E 012°26'1010.4
2014-Sep-30 05:33N 56°05' E 012°37'10 9.8
2014-Sep-30 04:33N 55°56' E 012°44'10 9.6
2014-Sep-30 03:33N 55°46' E 012°42'10 9.5
2014-Sep-30 02:33N 55°37' E 012°42'9 9.2
2014-Sep-30 01:33N 55°28' E 012°42'9 9.4
2014-Sep-30 00:33N 55°18' E 012°43'1010.3
2014-Sep-29 23:33N 55°16' E 013°00'1010.3
2014-Sep-29 22:33N 55°15' E 013°18'10 9.9
2014-Sep-29 21:33N 55°14' E 013°35'1010.0
2014-Sep-29 20:33N 55°14' E 013°53'1010.0
2014-Sep-29 19:34N 55°13' E 014°11'9 9.0
2014-Sep-29 18:33N 55°18' E 014°24'1010.1
2014-Sep-29 17:33N 55°26' E 014°36'10 9.6
2014-Sep-29 16:33N 55°28' E 014°52'10 9.7
2014-Sep-29 15:34N 55°29' E 015°09'10 9.8
2014-Sep-29 14:34N 55°30' E 015°27'1010.0
2014-Sep-29 13:32N 55°30' E 015°45'10 9.9
2014-Sep-29 12:33N 55°30' E 016°02'10 9.9
2014-Sep-29 11:34N 55°31' E 016°19'10 9.5
2014-Sep-29 10:30N 55°32' E 016°37'11 9.4
2014-Sep-29 09:20N 55°33' E 016°56'11 8.9
2014-Sep-29 08:08N 55°34' E 017°15'9 8.8
2014-Sep-29 07:04N 55°35' E 017°32'5 8.7
2014-Sep-29 06:31N 55°36' E 017°40'98 8.2
2014-Sep-28 18:33N 55°44' E 020°33'  
2014-Sep-23 22:08N 59°35' E 023°06'6 9.2
2014-Sep-23 21:27N 59°37' E 023°18'8 9.3
2014-Sep-23 20:33N 59°40' E 023°34'10 9.5
2014-Sep-23 19:33N 59°43' E 023°52'22 9.5
2014-Sep-23 17:15N 59°48' E 024°33'4 0.1
2014-Sep-22 06:31N 59°45' E 024°35'3110.6
2014-Sep-22 03:33N 59°35' E 023°36'  

Dump ship's entire track history